sensor_id;sensor_type;location;lat;lon;timestamp;P1;durP1;ratioP1;P2;durP2;ratioP2
76814;SDS011;65768;49.906;19.384;2023-03-23T00:01:58;7.80;;;4.70;;
76814;SDS011;65768;49.906;19.384;2023-03-23T00:04:28;8.20;;;4.60;;
76814;SDS011;65768;49.906;19.384;2023-03-23T00:06:57;7.10;;;4.90;;
76814;SDS011;65768;49.906;19.384;2023-03-23T00:09:29;9.80;;;5.80;;
76814;SDS011;65768;49.906;19.384;2023-03-23T00:12:03;8.30;;;4.10;;
76814;SDS011;65768;49.906;19.384;2023-03-23T00:14:35;8.30;;;4.50;;
76814;SDS011;65768;49.906;19.384;2023-03-23T00:17:10;8.60;;;4.70;;
76814;SDS011;65768;49.906;19.384;2023-03-23T00:19:43;7.90;;;5.20;;
76814;SDS011;65768;49.906;19.384;2023-03-23T00:22:15;7.20;;;4.20;;
76814;SDS011;65768;49.906;19.384;2023-03-23T00:24:49;7.40;;;4.40;;
76814;SDS011;65768;49.906;19.384;2023-03-23T00:27:19;6.30;;;4.20;;
76814;SDS011;65768;49.906;19.384;2023-03-23T00:29:50;7.80;;;4.10;;
76814;SDS011;65768;49.906;19.384;2023-03-23T00:32:22;6.60;;;4.00;;
76814;SDS011;65768;49.906;19.384;2023-03-23T00:34:57;7.10;;;3.80;;
76814;SDS011;65768;49.906;19.384;2023-03-23T00:37:29;6.70;;;4.10;;
76814;SDS011;65768;49.906;19.384;2023-03-23T00:39:59;8.30;;;4.40;;
76814;SDS011;65768;49.906;19.384;2023-03-23T00:42:29;6.60;;;4.00;;
76814;SDS011;65768;49.906;19.384;2023-03-23T00:44:58;6.80;;;4.30;;
76814;SDS011;65768;49.906;19.384;2023-03-23T00:47:29;7.70;;;4.40;;
76814;SDS011;65768;49.906;19.384;2023-03-23T00:49:58;8.60;;;4.30;;
76814;SDS011;65768;49.906;19.384;2023-03-23T00:52:27;10.20;;;5.10;;
76814;SDS011;65768;49.906;19.384;2023-03-23T00:54:56;8.10;;;4.80;;
76814;SDS011;65768;49.906;19.384;2023-03-23T00:57:25;9.40;;;4.10;;
76814;SDS011;65768;49.906;19.384;2023-03-23T00:59:53;7.00;;;3.60;;
76814;SDS011;65768;49.906;19.384;2023-03-23T01:02:22;6.10;;;3.50;;
76814;SDS011;65768;49.906;19.384;2023-03-23T01:04:53;5.90;;;3.50;;
76814;SDS011;65768;49.906;19.384;2023-03-23T01:07:22;7.40;;;3.60;;
76814;SDS011;65768;49.906;19.384;2023-03-23T01:09:52;10.30;;;3.90;;
76814;SDS011;65768;49.906;19.384;2023-03-23T01:12:22;7.30;;;3.30;;
76814;SDS011;65768;49.906;19.384;2023-03-23T01:14:52;6.70;;;4.20;;
76814;SDS011;65768;49.906;19.384;2023-03-23T01:17:22;8.20;;;3.80;;
76814;SDS011;65768;49.906;19.384;2023-03-23T01:19:51;5.30;;;3.00;;
76814;SDS011;65768;49.906;19.384;2023-03-23T01:22:20;5.70;;;3.50;;
76814;SDS011;65768;49.906;19.384;2023-03-23T01:24:49;5.80;;;3.90;;
76814;SDS011;65768;49.906;19.384;2023-03-23T01:27:18;6.80;;;3.90;;
76814;SDS011;65768;49.906;19.384;2023-03-23T01:29:47;5.50;;;3.20;;
76814;SDS011;65768;49.906;19.384;2023-03-23T01:32:16;6.50;;;3.50;;
76814;SDS011;65768;49.906;19.384;2023-03-23T01:34:45;5.00;;;3.70;;
76814;SDS011;65768;49.906;19.384;2023-03-23T01:37:13;5.70;;;3.30;;
76814;SDS011;65768;49.906;19.384;2023-03-23T01:39:43;5.70;;;3.40;;
76814;SDS011;65768;49.906;19.384;2023-03-23T01:42:12;5.50;;;3.20;;
76814;SDS011;65768;49.906;19.384;2023-03-23T01:45:26;4.60;;;3.10;;
76814;SDS011;65768;49.906;19.384;2023-03-23T01:50:25;4.90;;;2.70;;
76814;SDS011;65768;49.906;19.384;2023-03-23T01:52:56;4.60;;;3.10;;
76814;SDS011;65768;49.906;19.384;2023-03-23T01:55:27;5.30;;;3.40;;
76814;SDS011;65768;49.906;19.384;2023-03-23T01:57:57;4.60;;;3.10;;
76814;SDS011;65768;49.906;19.384;2023-03-23T02:00:25;6.70;;;3.80;;
76814;SDS011;65768;49.906;19.384;2023-03-23T02:02:54;6.30;;;3.50;;
76814;SDS011;65768;49.906;19.384;2023-03-23T02:05:26;8.10;;;4.40;;
76814;SDS011;65768;49.906;19.384;2023-03-23T02:08:00;9.20;;;4.40;;
76814;SDS011;65768;49.906;19.384;2023-03-23T02:10:31;6.40;;;4.40;;
76814;SDS011;65768;49.906;19.384;2023-03-23T02:13:02;7.20;;;4.30;;
76814;SDS011;65768;49.906;19.384;2023-03-23T02:15:49;7.40;;;5.70;;
76814;SDS011;65768;49.906;19.384;2023-03-23T02:21:19;21.00;;;10.00;;
76814;SDS011;65768;49.906;19.384;2023-03-23T02:24:10;10.40;;;4.50;;
76814;SDS011;65768;49.906;19.384;2023-03-23T02:27:08;5.60;;;3.90;;
76814;SDS011;65768;49.906;19.384;2023-03-23T02:39:20;7.30;;;4.00;;
76814;SDS011;65768;49.906;19.384;2023-03-23T02:41:54;5.80;;;3.40;;
76814;SDS011;65768;49.906;19.384;2023-03-23T02:44:26;4.50;;;2.90;;
76814;SDS011;65768;49.906;19.384;2023-03-23T02:47:02;7.10;;;3.60;;
76814;SDS011;65768;49.906;19.384;2023-03-23T02:49:36;8.00;;;3.90;;
76814;SDS011;65768;49.906;19.384;2023-03-23T02:52:08;6.90;;;3.20;;
76814;SDS011;65768;49.906;19.384;2023-03-23T02:54:43;4.40;;;2.80;;
76814;SDS011;65768;49.906;19.384;2023-03-23T02:57:14;6.10;;;2.90;;
76814;SDS011;65768;49.906;19.384;2023-03-23T02:59:45;5.00;;;3.20;;
76814;SDS011;65768;49.906;19.384;2023-03-23T03:05:30;6.90;;;3.10;;
76814;SDS011;65768;49.906;19.384;2023-03-23T03:11:22;5.30;;;3.10;;
76814;SDS011;65768;49.906;19.384;2023-03-23T03:16:35;5.50;;;3.00;;
76814;SDS011;65768;49.906;19.384;2023-03-23T03:19:15;8.30;;;2.90;;
76814;SDS011;65768;49.906;19.384;2023-03-23T03:21:54;3.80;;;2.60;;
76814;SDS011;65768;49.906;19.384;2023-03-23T03:26:57;4.40;;;2.70;;
76814;SDS011;65768;49.906;19.384;2023-03-23T03:29:30;3.90;;;2.40;;
76814;SDS011;65768;49.906;19.384;2023-03-23T03:32:02;5.20;;;3.00;;
76814;SDS011;65768;49.906;19.384;2023-03-23T03:34:36;4.80;;;2.60;;
76814;SDS011;65768;49.906;19.384;2023-03-23T03:37:05;6.40;;;3.20;;
76814;SDS011;65768;49.906;19.384;2023-03-23T03:39:35;3.90;;;2.60;;
76814;SDS011;65768;49.906;19.384;2023-03-23T03:42:05;4.60;;;2.80;;
76814;SDS011;65768;49.906;19.384;2023-03-23T03:44:34;4.80;;;2.90;;
76814;SDS011;65768;49.906;19.384;2023-03-23T03:47:04;5.40;;;3.10;;
76814;SDS011;65768;49.906;19.384;2023-03-23T03:49:33;4.20;;;2.80;;
76814;SDS011;65768;49.906;19.384;2023-03-23T03:52:01;5.30;;;3.30;;
76814;SDS011;65768;49.906;19.384;2023-03-23T03:54:30;4.60;;;2.70;;
76814;SDS011;65768;49.906;19.384;2023-03-23T03:56:59;4.90;;;2.90;;
76814;SDS011;65768;49.906;19.384;2023-03-23T03:59:28;4.60;;;2.60;;
76814;SDS011;65768;49.906;19.384;2023-03-23T04:01:59;5.10;;;3.10;;
76814;SDS011;65768;49.906;19.384;2023-03-23T04:04:28;6.10;;;3.40;;
76814;SDS011;65768;49.906;19.384;2023-03-23T04:06:57;5.10;;;3.40;;
76814;SDS011;65768;49.906;19.384;2023-03-23T04:09:26;7.90;;;4.20;;
76814;SDS011;65768;49.906;19.384;2023-03-23T04:11:56;5.40;;;3.10;;
76814;SDS011;65768;49.906;19.384;2023-03-23T04:14:25;9.40;;;3.70;;
76814;SDS011;65768;49.906;19.384;2023-03-23T04:16:54;3.70;;;2.70;;
76814;SDS011;65768;49.906;19.384;2023-03-23T04:19:25;5.20;;;2.70;;
76814;SDS011;65768;49.906;19.384;2023-03-23T04:21:56;5.50;;;3.60;;
76814;SDS011;65768;49.906;19.384;2023-03-23T04:24:26;6.30;;;3.00;;
76814;SDS011;65768;49.906;19.384;2023-03-23T04:26:56;4.50;;;2.60;;
76814;SDS011;65768;49.906;19.384;2023-03-23T04:29:26;6.10;;;3.20;;
76814;SDS011;65768;49.906;19.384;2023-03-23T04:31:55;4.10;;;2.60;;
76814;SDS011;65768;49.906;19.384;2023-03-23T04:34:24;6.80;;;3.40;;
76814;SDS011;65768;49.906;19.384;2023-03-23T04:36:54;4.80;;;2.90;;
76814;SDS011;65768;49.906;19.384;2023-03-23T04:39:24;8.20;;;3.70;;
76814;SDS011;65768;49.906;19.384;2023-03-23T04:41:57;6.00;;;3.20;;
76814;SDS011;65768;49.906;19.384;2023-03-23T04:44:29;4.60;;;3.10;;
76814;SDS011;65768;49.906;19.384;2023-03-23T04:47:01;5.40;;;3.40;;
76814;SDS011;65768;49.906;19.384;2023-03-23T04:49:30;5.20;;;3.10;;
76814;SDS011;65768;49.906;19.384;2023-03-23T04:51:59;4.70;;;3.10;;
76814;SDS011;65768;49.906;19.384;2023-03-23T04:54:31;6.40;;;3.20;;
76814;SDS011;65768;49.906;19.384;2023-03-23T04:57:00;4.10;;;3.10;;
76814;SDS011;65768;49.906;19.384;2023-03-23T04:59:28;5.60;;;3.60;;
76814;SDS011;65768;49.906;19.384;2023-03-23T05:01:58;5.90;;;3.10;;
76814;SDS011;65768;49.906;19.384;2023-03-23T05:04:27;5.10;;;2.70;;
76814;SDS011;65768;49.906;19.384;2023-03-23T05:06:56;4.50;;;2.90;;
76814;SDS011;65768;49.906;19.384;2023-03-23T05:09:25;4.80;;;3.00;;
76814;SDS011;65768;49.906;19.384;2023-03-23T05:11:54;4.40;;;2.80;;
76814;SDS011;65768;49.906;19.384;2023-03-23T05:14:22;4.60;;;2.70;;
76814;SDS011;65768;49.906;19.384;2023-03-23T05:16:51;4.50;;;3.10;;
76814;SDS011;65768;49.906;19.384;2023-03-23T05:19:22;3.40;;;2.40;;
76814;SDS011;65768;49.906;19.384;2023-03-23T05:21:50;4.90;;;3.10;;
76814;SDS011;65768;49.906;19.384;2023-03-23T05:24:19;3.40;;;2.10;;
76814;SDS011;65768;49.906;19.384;2023-03-23T05:26:53;6.20;;;3.20;;
76814;SDS011;65768;49.906;19.384;2023-03-23T05:29:22;4.70;;;2.70;;
76814;SDS011;65768;49.906;19.384;2023-03-23T05:31:52;5.50;;;3.40;;
76814;SDS011;65768;49.906;19.384;2023-03-23T05:34:24;4.70;;;2.80;;
76814;SDS011;65768;49.906;19.384;2023-03-23T05:36:54;5.30;;;2.90;;
76814;SDS011;65768;49.906;19.384;2023-03-23T05:39:26;5.90;;;3.30;;
76814;SDS011;65768;49.906;19.384;2023-03-23T05:41:59;5.80;;;3.30;;
76814;SDS011;65768;49.906;19.384;2023-03-23T05:44:27;4.00;;;2.60;;
76814;SDS011;65768;49.906;19.384;2023-03-23T05:46:56;4.00;;;2.90;;
76814;SDS011;65768;49.906;19.384;2023-03-23T05:49:25;9.70;;;3.80;;
76814;SDS011;65768;49.906;19.384;2023-03-23T05:51:54;5.80;;;3.60;;
76814;SDS011;65768;49.906;19.384;2023-03-23T05:54:22;4.30;;;2.80;;
76814;SDS011;65768;49.906;19.384;2023-03-23T05:56:50;4.90;;;2.90;;
76814;SDS011;65768;49.906;19.384;2023-03-23T05:59:19;7.00;;;2.50;;
76814;SDS011;65768;49.906;19.384;2023-03-23T06:01:48;5.70;;;3.20;;
76814;SDS011;65768;49.906;19.384;2023-03-23T06:04:19;4.80;;;3.00;;
76814;SDS011;65768;49.906;19.384;2023-03-23T06:06:47;8.00;;;3.10;;
76814;SDS011;65768;49.906;19.384;2023-03-23T06:09:16;5.20;;;2.50;;
76814;SDS011;65768;49.906;19.384;2023-03-23T06:11:45;4.30;;;3.10;;
76814;SDS011;65768;49.906;19.384;2023-03-23T06:14:15;3.60;;;2.20;;
76814;SDS011;65768;49.906;19.384;2023-03-23T06:16:44;4.70;;;2.90;;
76814;SDS011;65768;49.906;19.384;2023-03-23T06:19:13;6.00;;;3.40;;
76814;SDS011;65768;49.906;19.384;2023-03-23T06:21:43;4.60;;;2.50;;
76814;SDS011;65768;49.906;19.384;2023-03-23T06:24:12;4.70;;;2.70;;
76814;SDS011;65768;49.906;19.384;2023-03-23T06:26:41;4.70;;;2.50;;
76814;SDS011;65768;49.906;19.384;2023-03-23T06:29:09;6.40;;;2.60;;
76814;SDS011;65768;49.906;19.384;2023-03-23T06:31:43;5.30;;;2.80;;
76814;SDS011;65768;49.906;19.384;2023-03-23T06:34:14;5.00;;;2.90;;
76814;SDS011;65768;49.906;19.384;2023-03-23T06:36:42;4.90;;;3.00;;
76814;SDS011;65768;49.906;19.384;2023-03-23T06:39:12;3.90;;;2.50;;
76814;SDS011;65768;49.906;19.384;2023-03-23T06:41:41;6.00;;;2.30;;
76814;SDS011;65768;49.906;19.384;2023-03-23T06:44:10;5.60;;;2.90;;
76814;SDS011;65768;49.906;19.384;2023-03-23T06:46:41;3.50;;;2.50;;
76814;SDS011;65768;49.906;19.384;2023-03-23T06:49:09;3.10;;;2.40;;
76814;SDS011;65768;49.906;19.384;2023-03-23T06:51:38;4.00;;;3.10;;
76814;SDS011;65768;49.906;19.384;2023-03-23T06:54:07;4.40;;;3.00;;
76814;SDS011;65768;49.906;19.384;2023-03-23T06:56:35;6.50;;;3.40;;
76814;SDS011;65768;49.906;19.384;2023-03-23T06:59:04;4.70;;;3.10;;
76814;SDS011;65768;49.906;19.384;2023-03-23T07:01:33;3.30;;;2.10;;
76814;SDS011;65768;49.906;19.384;2023-03-23T07:04:02;4.20;;;2.60;;
76814;SDS011;65768;49.906;19.384;2023-03-23T07:06:31;7.10;;;2.90;;
76814;SDS011;65768;49.906;19.384;2023-03-23T07:09:00;6.00;;;2.90;;
76814;SDS011;65768;49.906;19.384;2023-03-23T07:11:29;5.40;;;3.20;;
76814;SDS011;65768;49.906;19.384;2023-03-23T07:13:58;4.80;;;3.00;;
76814;SDS011;65768;49.906;19.384;2023-03-23T07:16:26;4.30;;;3.20;;
76814;SDS011;65768;49.906;19.384;2023-03-23T07:18:54;3.70;;;2.50;;
76814;SDS011;65768;49.906;19.384;2023-03-23T07:21:23;5.80;;;2.40;;
76814;SDS011;65768;49.906;19.384;2023-03-23T07:23:51;4.90;;;2.70;;
76814;SDS011;65768;49.906;19.384;2023-03-23T07:26:19;4.40;;;3.00;;
76814;SDS011;65768;49.906;19.384;2023-03-23T07:28:48;5.50;;;2.70;;
76814;SDS011;65768;49.906;19.384;2023-03-23T07:31:17;4.20;;;2.60;;
76814;SDS011;65768;49.906;19.384;2023-03-23T07:33:45;4.70;;;3.00;;
76814;SDS011;65768;49.906;19.384;2023-03-23T07:36:13;5.50;;;2.10;;
76814;SDS011;65768;49.906;19.384;2023-03-23T07:38:41;3.50;;;2.30;;
76814;SDS011;65768;49.906;19.384;2023-03-23T07:41:11;6.70;;;2.60;;
76814;SDS011;65768;49.906;19.384;2023-03-23T07:43:40;4.80;;;2.80;;
76814;SDS011;65768;49.906;19.384;2023-03-23T07:46:09;4.40;;;3.30;;
76814;SDS011;65768;49.906;19.384;2023-03-23T07:48:39;5.30;;;2.70;;
76814;SDS011;65768;49.906;19.384;2023-03-23T07:51:07;6.90;;;3.00;;
76814;SDS011;65768;49.906;19.384;2023-03-23T07:53:37;5.00;;;2.80;;
76814;SDS011;65768;49.906;19.384;2023-03-23T09:37:18;3.70;;;2.50;;
76814;SDS011;65768;49.906;19.384;2023-03-23T09:39:48;3.60;;;2.00;;
76814;SDS011;65768;49.906;19.384;2023-03-23T09:45:54;6.80;;;2.40;;
76814;SDS011;65768;49.906;19.384;2023-03-23T09:48:53;5.40;;;2.50;;
76814;SDS011;65768;49.906;19.384;2023-03-23T09:56:46;5.70;;;2.40;;
76814;SDS011;65768;49.906;19.384;2023-03-23T09:59:18;4.70;;;2.20;;
76814;SDS011;65768;49.906;19.384;2023-03-23T10:01:48;4.00;;;2.30;;
76814;SDS011;65768;49.906;19.384;2023-03-23T10:07:10;4.00;;;2.20;;
76814;SDS011;65768;49.906;19.384;2023-03-23T10:09:40;5.10;;;2.30;;
76814;SDS011;65768;49.906;19.384;2023-03-23T10:12:30;5.20;;;2.50;;
76814;SDS011;65768;49.906;19.384;2023-03-23T10:15:30;3.80;;;2.10;;
76814;SDS011;65768;49.906;19.384;2023-03-23T10:18:07;4.30;;;1.90;;
76814;SDS011;65768;49.906;19.384;2023-03-23T10:26:51;3.80;;;2.30;;
76814;SDS011;65768;49.906;19.384;2023-03-23T10:29:29;3.90;;;1.80;;
76814;SDS011;65768;49.906;19.384;2023-03-23T10:32:11;3.60;;;2.30;;
76814;SDS011;65768;49.906;19.384;2023-03-23T10:34:47;3.30;;;2.40;;
76814;SDS011;65768;49.906;19.384;2023-03-23T10:37:25;3.50;;;1.70;;
76814;SDS011;65768;49.906;19.384;2023-03-23T10:40:22;4.10;;;2.00;;
76814;SDS011;65768;49.906;19.384;2023-03-23T10:42:54;3.40;;;2.20;;
76814;SDS011;65768;49.906;19.384;2023-03-23T10:45:23;5.20;;;2.30;;
76814;SDS011;65768;49.906;19.384;2023-03-23T10:48:11;4.80;;;1.70;;
76814;SDS011;65768;49.906;19.384;2023-03-23T10:51:01;5.00;;;1.80;;
76814;SDS011;65768;49.906;19.384;2023-03-23T10:53:34;3.70;;;1.80;;
76814;SDS011;65768;49.906;19.384;2023-03-23T10:56:05;3.40;;;1.90;;
76814;SDS011;65768;49.906;19.384;2023-03-23T10:58:50;3.80;;;1.40;;
76814;SDS011;65768;49.906;19.384;2023-03-23T11:01:19;4.00;;;2.30;;
76814;SDS011;65768;49.906;19.384;2023-03-23T11:03:59;5.00;;;2.10;;
76814;SDS011;65768;49.906;19.384;2023-03-23T11:06:29;2.40;;;1.40;;
76814;SDS011;65768;49.906;19.384;2023-03-23T11:09:08;4.70;;;2.00;;
76814;SDS011;65768;49.906;19.384;2023-03-23T11:11:41;7.40;;;2.20;;
76814;SDS011;65768;49.906;19.384;2023-03-23T11:19:27;6.10;;;2.40;;
76814;SDS011;65768;49.906;19.384;2023-03-23T11:24:34;3.90;;;1.80;;
76814;SDS011;65768;49.906;19.384;2023-03-23T11:27:15;3.70;;;1.80;;
76814;SDS011;65768;49.906;19.384;2023-03-23T11:29:53;3.80;;;2.10;;
76814;SDS011;65768;49.906;19.384;2023-03-23T11:32:25;6.30;;;2.10;;
76814;SDS011;65768;49.906;19.384;2023-03-23T11:34:58;3.80;;;1.80;;
76814;SDS011;65768;49.906;19.384;2023-03-23T11:37:35;3.20;;;1.60;;
76814;SDS011;65768;49.906;19.384;2023-03-23T11:40:20;3.80;;;1.90;;
76814;SDS011;65768;49.906;19.384;2023-03-23T11:43:00;4.70;;;1.80;;
76814;SDS011;65768;49.906;19.384;2023-03-23T11:48:18;5.20;;;1.80;;
76814;SDS011;65768;49.906;19.384;2023-03-23T11:50:52;3.30;;;1.60;;
76814;SDS011;65768;49.906;19.384;2023-03-23T11:58:46;3.80;;;1.90;;
76814;SDS011;65768;49.906;19.384;2023-03-23T12:01:19;3.50;;;1.90;;
76814;SDS011;65768;49.906;19.384;2023-03-23T12:04:21;5.80;;;2.40;;
76814;SDS011;65768;49.906;19.384;2023-03-23T12:24:46;5.40;;;2.20;;
76814;SDS011;65768;49.906;19.384;2023-03-23T12:27:42;4.90;;;2.60;;
76814;SDS011;65768;49.906;19.384;2023-03-23T12:30:25;3.80;;;2.30;;
76814;SDS011;65768;49.906;19.384;2023-03-23T12:38:43;3.30;;;1.80;;
76814;SDS011;65768;49.906;19.384;2023-03-23T12:44:31;5.30;;;1.20;;
76814;SDS011;65768;49.906;19.384;2023-03-23T12:47:21;2.40;;;1.40;;
76814;SDS011;65768;49.906;19.384;2023-03-23T12:56:05;3.20;;;1.10;;
76814;SDS011;65768;49.906;19.384;2023-03-23T12:59:03;4.10;;;1.60;;
76814;SDS011;65768;49.906;19.384;2023-03-23T13:02:01;2.80;;;1.20;;
76814;SDS011;65768;49.906;19.384;2023-03-23T13:04:55;3.00;;;1.20;;
76814;SDS011;65768;49.906;19.384;2023-03-23T13:07:28;4.40;;;1.50;;
76814;SDS011;65768;49.906;19.384;2023-03-23T13:10:20;6.20;;;2.10;;
76814;SDS011;65768;49.906;19.384;2023-03-23T13:12:52;2.70;;;1.00;;
76814;SDS011;65768;49.906;19.384;2023-03-23T13:15:39;3.70;;;1.40;;
76814;SDS011;65768;49.906;19.384;2023-03-23T13:23:31;2.40;;;1.10;;
76814;SDS011;65768;49.906;19.384;2023-03-23T13:26:13;3.50;;;2.50;;
76814;SDS011;65768;49.906;19.384;2023-03-23T13:28:59;4.70;;;3.20;;
76814;SDS011;65768;49.906;19.384;2023-03-23T13:31:37;1.90;;;1.00;;
76814;SDS011;65768;49.906;19.384;2023-03-23T13:34:23;4.00;;;1.10;;
76814;SDS011;65768;49.906;19.384;2023-03-23T13:37:04;3.40;;;1.30;;
76814;SDS011;65768;49.906;19.384;2023-03-23T13:39:49;2.60;;;1.20;;
76814;SDS011;65768;49.906;19.384;2023-03-23T13:42:52;3.30;;;1.30;;
76814;SDS011;65768;49.906;19.384;2023-03-23T13:48:05;4.20;;;1.60;;
76814;SDS011;65768;49.906;19.384;2023-03-23T13:51:00;5.20;;;3.80;;
76814;SDS011;65768;49.906;19.384;2023-03-23T13:53:43;3.60;;;1.90;;
76814;SDS011;65768;49.906;19.384;2023-03-23T13:56:17;3.90;;;1.60;;
76814;SDS011;65768;49.906;19.384;2023-03-23T13:58:52;4.10;;;1.30;;
76814;SDS011;65768;49.906;19.384;2023-03-23T14:01:37;6.00;;;1.40;;
76814;SDS011;65768;49.906;19.384;2023-03-23T14:04:19;2.90;;;1.40;;
76814;SDS011;65768;49.906;19.384;2023-03-23T14:06:51;3.30;;;1.40;;
76814;SDS011;65768;49.906;19.384;2023-03-23T14:09:31;3.30;;;1.50;;
76814;SDS011;65768;49.906;19.384;2023-03-23T14:12:03;3.90;;;1.40;;
76814;SDS011;65768;49.906;19.384;2023-03-23T14:14:39;3.00;;;1.20;;
76814;SDS011;65768;49.906;19.384;2023-03-23T14:19:50;3.50;;;1.80;;
76814;SDS011;65768;49.906;19.384;2023-03-23T14:22:31;3.50;;;1.40;;
76814;SDS011;65768;49.906;19.384;2023-03-23T14:25:09;4.10;;;1.70;;
76814;SDS011;65768;49.906;19.384;2023-03-23T14:27:40;2.30;;;1.40;;
76814;SDS011;65768;49.906;19.384;2023-03-23T14:30:14;3.40;;;2.00;;
76814;SDS011;65768;49.906;19.384;2023-03-23T14:32:46;3.90;;;1.80;;
76814;SDS011;65768;49.906;19.384;2023-03-23T14:35:25;3.60;;;2.20;;
76814;SDS011;65768;49.906;19.384;2023-03-23T14:37:55;2.80;;;1.70;;
76814;SDS011;65768;49.906;19.384;2023-03-23T14:40:26;3.50;;;2.80;;
76814;SDS011;65768;49.906;19.384;2023-03-23T14:42:56;6.10;;;2.90;;
76814;SDS011;65768;49.906;19.384;2023-03-23T14:45:25;4.00;;;2.10;;
76814;SDS011;65768;49.906;19.384;2023-03-23T14:47:55;5.10;;;2.50;;
76814;SDS011;65768;49.906;19.384;2023-03-23T14:50:37;3.80;;;2.30;;
76814;SDS011;65768;49.906;19.384;2023-03-23T14:53:11;5.40;;;3.40;;
76814;SDS011;65768;49.906;19.384;2023-03-23T14:55:46;6.30;;;4.20;;
76814;SDS011;65768;49.906;19.384;2023-03-23T14:58:17;6.60;;;4.20;;
76814;SDS011;65768;49.906;19.384;2023-03-23T15:03:26;4.70;;;2.50;;
76814;SDS011;65768;49.906;19.384;2023-03-23T15:05:58;5.60;;;2.90;;
76814;SDS011;65768;49.906;19.384;2023-03-23T15:08:31;5.60;;;3.10;;
76814;SDS011;65768;49.906;19.384;2023-03-23T15:11:06;6.70;;;3.50;;
76814;SDS011;65768;49.906;19.384;2023-03-23T15:13:42;7.10;;;3.60;;
76814;SDS011;65768;49.906;19.384;2023-03-23T15:16:26;6.50;;;3.30;;
76814;SDS011;65768;49.906;19.384;2023-03-23T15:19:04;6.30;;;3.30;;
76814;SDS011;65768;49.906;19.384;2023-03-23T15:21:35;10.30;;;4.30;;
76814;SDS011;65768;49.906;19.384;2023-03-23T15:24:20;7.70;;;3.50;;
76814;SDS011;65768;49.906;19.384;2023-03-23T15:27:02;5.60;;;2.60;;
76814;SDS011;65768;49.906;19.384;2023-03-23T15:30:26;4.10;;;2.40;;
76814;SDS011;65768;49.906;19.384;2023-03-23T15:33:04;6.00;;;3.00;;
76814;SDS011;65768;49.906;19.384;2023-03-23T15:35:41;4.70;;;2.80;;
76814;SDS011;65768;49.906;19.384;2023-03-23T15:38:25;8.90;;;3.30;;
76814;SDS011;65768;49.906;19.384;2023-03-23T15:41:01;6.90;;;3.20;;
76814;SDS011;65768;49.906;19.384;2023-03-23T15:43:48;6.60;;;3.10;;
76814;SDS011;65768;49.906;19.384;2023-03-23T15:46:21;7.00;;;3.10;;
76814;SDS011;65768;49.906;19.384;2023-03-23T15:51:27;3.80;;;2.50;;
76814;SDS011;65768;49.906;19.384;2023-03-23T15:53:57;5.10;;;2.80;;
76814;SDS011;65768;49.906;19.384;2023-03-23T15:56:26;5.90;;;3.20;;
76814;SDS011;65768;49.906;19.384;2023-03-23T15:58:57;4.80;;;2.50;;
76814;SDS011;65768;49.906;19.384;2023-03-23T16:01:28;6.60;;;3.70;;
76814;SDS011;65768;49.906;19.384;2023-03-23T16:03:59;10.40;;;5.00;;
76814;SDS011;65768;49.906;19.384;2023-03-23T16:06:33;6.80;;;3.30;;
76814;SDS011;65768;49.906;19.384;2023-03-23T16:09:04;6.70;;;3.90;;
76814;SDS011;65768;49.906;19.384;2023-03-23T16:11:33;7.50;;;4.30;;
76814;SDS011;65768;49.906;19.384;2023-03-23T16:14:02;14.20;;;5.30;;
76814;SDS011;65768;49.906;19.384;2023-03-23T16:16:31;5.60;;;3.20;;
76814;SDS011;65768;49.906;19.384;2023-03-23T16:19:03;7.60;;;3.80;;
76814;SDS011;65768;49.906;19.384;2023-03-23T16:21:34;6.90;;;3.40;;
76814;SDS011;65768;49.906;19.384;2023-03-23T16:24:02;5.70;;;3.30;;
76814;SDS011;65768;49.906;19.384;2023-03-23T16:26:30;6.40;;;3.40;;
76814;SDS011;65768;49.906;19.384;2023-03-23T16:28:59;8.30;;;3.60;;
76814;SDS011;65768;49.906;19.384;2023-03-23T16:31:29;7.30;;;4.30;;
76814;SDS011;65768;49.906;19.384;2023-03-23T16:33:58;7.90;;;3.80;;
76814;SDS011;65768;49.906;19.384;2023-03-23T16:36:26;10.50;;;5.30;;
76814;SDS011;65768;49.906;19.384;2023-03-23T16:38:56;11.30;;;4.90;;
76814;SDS011;65768;49.906;19.384;2023-03-23T16:41:24;8.60;;;5.20;;
76814;SDS011;65768;49.906;19.384;2023-03-23T16:43:53;11.00;;;6.60;;
76814;SDS011;65768;49.906;19.384;2023-03-23T16:46:21;15.10;;;6.80;;
76814;SDS011;65768;49.906;19.384;2023-03-23T16:48:50;11.10;;;6.10;;
76814;SDS011;65768;49.906;19.384;2023-03-23T16:51:18;9.60;;;4.80;;
76814;SDS011;65768;49.906;19.384;2023-03-23T16:53:46;5.90;;;4.00;;
76814;SDS011;65768;49.906;19.384;2023-03-23T16:56:14;7.20;;;3.90;;
76814;SDS011;65768;49.906;19.384;2023-03-23T16:58:43;9.10;;;4.10;;
76814;SDS011;65768;49.906;19.384;2023-03-23T17:01:12;6.10;;;3.40;;
76814;SDS011;65768;49.906;19.384;2023-03-23T17:03:42;7.30;;;3.50;;
76814;SDS011;65768;49.906;19.384;2023-03-23T17:06:11;11.00;;;3.90;;
76814;SDS011;65768;49.906;19.384;2023-03-23T17:08:39;7.40;;;4.40;;
76814;SDS011;65768;49.906;19.384;2023-03-23T17:11:09;10.20;;;4.10;;
76814;SDS011;65768;49.906;19.384;2023-03-23T17:13:38;8.50;;;5.10;;
76814;SDS011;65768;49.906;19.384;2023-03-23T17:16:06;10.60;;;5.20;;
76814;SDS011;65768;49.906;19.384;2023-03-23T17:18:35;13.00;;;5.20;;
76814;SDS011;65768;49.906;19.384;2023-03-23T17:21:03;8.80;;;5.00;;
76814;SDS011;65768;49.906;19.384;2023-03-23T17:23:32;9.20;;;4.90;;
76814;SDS011;65768;49.906;19.384;2023-03-23T17:26:00;11.50;;;5.60;;
76814;SDS011;65768;49.906;19.384;2023-03-23T17:28:28;13.90;;;6.50;;
76814;SDS011;65768;49.906;19.384;2023-03-23T17:30:57;11.40;;;5.60;;
76814;SDS011;65768;49.906;19.384;2023-03-23T17:33:26;8.60;;;4.40;;
76814;SDS011;65768;49.906;19.384;2023-03-23T17:35:55;9.30;;;4.90;;
76814;SDS011;65768;49.906;19.384;2023-03-23T17:38:24;8.10;;;4.60;;
76814;SDS011;65768;49.906;19.384;2023-03-23T17:40:58;9.90;;;4.10;;
76814;SDS011;65768;49.906;19.384;2023-03-23T17:43:29;9.50;;;5.20;;
76814;SDS011;65768;49.906;19.384;2023-03-23T17:45:58;10.30;;;5.20;;
76814;SDS011;65768;49.906;19.384;2023-03-23T17:48:27;9.90;;;5.10;;
76814;SDS011;65768;49.906;19.384;2023-03-23T17:50:56;9.60;;;4.80;;
76814;SDS011;65768;49.906;19.384;2023-03-23T17:53:25;12.80;;;6.20;;
76814;SDS011;65768;49.906;19.384;2023-03-23T17:55:55;11.70;;;6.50;;
76814;SDS011;65768;49.906;19.384;2023-03-23T17:58:24;11.70;;;5.80;;
76814;SDS011;65768;49.906;19.384;2023-03-23T18:00:55;12.90;;;6.30;;
76814;SDS011;65768;49.906;19.384;2023-03-23T18:03:24;18.60;;;7.80;;
76814;SDS011;65768;49.906;19.384;2023-03-23T18:06:01;14.70;;;7.10;;
76814;SDS011;65768;49.906;19.384;2023-03-23T18:08:36;9.30;;;5.50;;
76814;SDS011;65768;49.906;19.384;2023-03-23T18:11:05;21.60;;;14.00;;
76814;SDS011;65768;49.906;19.384;2023-03-23T18:13:34;11.50;;;5.80;;
76814;SDS011;65768;49.906;19.384;2023-03-23T18:16:05;16.80;;;10.00;;
76814;SDS011;65768;49.906;19.384;2023-03-23T18:18:36;13.60;;;6.40;;
76814;SDS011;65768;49.906;19.384;2023-03-23T18:21:06;13.60;;;6.20;;
76814;SDS011;65768;49.906;19.384;2023-03-23T18:23:37;10.00;;;5.10;;
76814;SDS011;65768;49.906;19.384;2023-03-23T18:26:09;13.10;;;5.80;;
76814;SDS011;65768;49.906;19.384;2023-03-23T18:28:42;13.70;;;6.40;;
76814;SDS011;65768;49.906;19.384;2023-03-23T18:31:12;11.60;;;6.00;;
76814;SDS011;65768;49.906;19.384;2023-03-23T18:33:44;12.70;;;5.30;;
76814;SDS011;65768;49.906;19.384;2023-03-23T18:36:18;9.20;;;5.40;;
76814;SDS011;65768;49.906;19.384;2023-03-23T18:38:52;12.60;;;5.80;;